createdAt,value
2022-08-05T00:00:33.880Z,77.10
2022-08-05T00:03:15.617Z,77.70
2022-08-05T00:06:04.697Z,77.10
2022-08-05T00:08:34.592Z,76.80
2022-08-05T00:11:07.618Z,76.80
2022-08-05T00:13:53.124Z,77.00
2022-08-05T00:16:35.607Z,76.90
2022-08-05T00:19:05.194Z,77.30
2022-08-05T00:21:35.748Z,77.80
2022-08-05T00:24:10.658Z,77.60
2022-08-05T00:26:39.324Z,77.80
2022-08-05T00:29:19.250Z,77.30
2022-08-05T00:32:12.382Z,77.10
2022-08-05T00:35:05.809Z,76.30
2022-08-05T00:37:51.343Z,76.10
2022-08-05T00:40:26.692Z,75.40
2022-08-05T00:43:01.319Z,74.60
2022-08-05T00:45:42.822Z,75.20
2022-08-05T00:48:27.405Z,75.20
2022-08-05T00:50:59.058Z,75.00
2022-08-05T00:54:00.153Z,74.80
2022-08-05T00:56:17.407Z,74.60
2022-08-05T00:58:50.448Z,74.40
2022-08-05T01:01:42.279Z,74.40
2022-08-05T01:04:13.553Z,74.80
2022-08-05T01:06:42.036Z,74.80
2022-08-05T01:09:14.137Z,74.30
2022-08-05T01:11:44.193Z,74.90
2022-08-05T01:14:30.177Z,75.70
2022-08-05T01:17:11.618Z,75.30
2022-08-05T01:20:01.160Z,74.10
2022-08-05T01:22:52.347Z,74.40
2022-08-05T01:25:53.326Z,74.90
2022-08-05T01:28:39.360Z,74.10
2022-08-05T01:31:44.930Z,74.00
2022-08-05T01:34:47.699Z,74.20
2022-08-05T01:37:54.592Z,74.40
2022-08-05T01:40:28.018Z,74.30
2022-08-05T01:42:59.370Z,74.00
2022-08-05T01:45:28.116Z,74.50
2022-08-05T01:48:04.279Z,74.60
2022-08-05T01:50:40.748Z,74.80
2022-08-05T01:53:54.753Z,74.90
2022-08-05T01:58:10.297Z,74.40
2022-08-05T01:59:04.950Z,73.90
2022-08-05T02:01:37.964Z,75.00
2022-08-05T02:04:10.285Z,74.10
2022-08-05T02:06:39.640Z,74.20
2022-08-05T02:09:08.583Z,74.70
2022-08-05T02:12:03.760Z,74.70
2022-08-05T02:15:12.163Z,74.80
2022-08-05T02:18:30.592Z,73.90
2022-08-05T02:20:44.440Z,74.10
2022-08-05T02:23:16.740Z,74.50
2022-08-05T02:25:49.868Z,74.50
2022-08-05T02:28:29.067Z,74.80
2022-08-05T02:31:14.542Z,74.90
2022-08-05T02:33:48.903Z,75.10
2022-08-05T02:36:27.416Z,75.20
2022-08-05T02:38:57.616Z,74.60
2022-08-05T02:41:28.785Z,74.30
2022-08-05T02:44:12.205Z,74.30
2022-08-05T02:46:44.054Z,74.10
2022-08-05T02:49:40.437Z,74.00
2022-08-05T02:52:29.712Z,74.10
2022-08-05T02:55:05.484Z,74.00
2022-08-05T02:58:09.235Z,73.90
2022-08-05T03:00:25.353Z,73.90
2022-08-05T03:02:55.220Z,73.70
2022-08-05T03:06:55.284Z,73.50
2022-08-05T03:08:12.111Z,73.40
2022-08-05T03:11:55.508Z,73.50
2022-08-05T03:13:52.004Z,73.00
2022-08-05T03:16:21.201Z,73.30
2022-08-05T03:18:48.978Z,73.10
2022-08-05T03:21:16.507Z,72.80
2022-08-05T03:23:45.661Z,72.80
2022-08-05T03:26:31.700Z,72.70
2022-08-05T03:29:00.132Z,70.90
2022-08-05T03:31:55.937Z,68.70
2022-08-05T03:34:16.814Z,65.50
2022-08-05T03:36:44.220Z,64.20
2022-08-05T03:39:13.010Z,62.60
2022-08-05T03:41:47.513Z,61.60
2022-08-05T03:44:20.228Z,60.20
2022-08-05T03:46:47.695Z,57.60
2022-08-05T03:49:16.421Z,56.60
2022-08-05T03:52:48.657Z,55.00
2022-08-05T03:55:50.694Z,54.30
2022-08-05T03:57:44.555Z,54.20
2022-08-05T04:00:16.190Z,51.50
2022-08-05T04:02:58.294Z,52.40
2022-08-05T04:05:35.914Z,52.20
2022-08-05T04:08:29.551Z,51.50
2022-08-05T04:10:53.953Z,49.60
2022-08-05T04:13:23.225Z,49.20
2022-08-05T04:16:03.362Z,48.40
2022-08-05T04:18:34.469Z,48.10
2022-08-05T04:21:03.876Z,47.60
2022-08-05T04:23:57.295Z,47.60
2022-08-05T04:26:20.702Z,48.20
2022-08-05T04:28:50.992Z,47.40
2022-08-05T04:31:20.278Z,47.70
2022-08-05T04:34:18.639Z,47.90
2022-08-05T04:36:45.437Z,47.20
2022-08-05T04:39:14.184Z,46.30
2022-08-05T04:41:41.806Z,46.10
2022-08-05T04:44:09.878Z,46.10
2022-08-05T04:46:39.076Z,46.20
2022-08-05T04:49:14.634Z,47.30
2022-08-05T04:51:44.327Z,46.60
2022-08-05T04:54:12.261Z,46.60
2022-08-05T04:56:40.217Z,46.60
2022-08-05T04:59:21.646Z,46.50
2022-08-05T05:02:06.786Z,45.70
2022-08-05T05:04:36.281Z,45.90
2022-08-05T05:07:09.387Z,45.60
2022-08-05T05:09:37.486Z,45.70
2022-08-05T05:12:06.230Z,44.00
2022-08-05T05:14:36.203Z,44.80
2022-08-05T05:17:07.474Z,45.10
2022-08-05T05:19:44.325Z,44.20
2022-08-05T05:22:24.576Z,44.50
2022-08-05T05:24:57.335Z,45.00
2022-08-05T05:27:44.943Z,43.90
2022-08-05T05:30:31.184Z,43.10
2022-08-05T05:33:08.815Z,42.70
2022-08-05T05:35:47.611Z,44.10
2022-08-05T05:38:22.722Z,42.80
2022-08-05T05:40:56.018Z,43.30
2022-08-05T05:43:56.488Z,43.30
2022-08-05T05:46:17.283Z,43.40
2022-08-05T05:48:48.121Z,43.70
2022-08-05T05:51:42.821Z,43.80
2022-08-05T05:54:17.513Z,43.30
2022-08-05T05:56:47.323Z,43.10
2022-08-05T05:59:15.079Z,42.20
2022-08-05T06:01:57.136Z,43.10
2022-08-05T06:04:25.643Z,43.20
2022-08-05T06:06:53.085Z,42.10
2022-08-05T06:09:25.926Z,42.90
2022-08-05T06:12:04.079Z,42.40
2022-08-05T06:14:32.116Z,42.60
2022-08-05T06:17:22.585Z,43.40
2022-08-05T06:19:56.742Z,43.20
2022-08-05T06:22:29.283Z,44.10
2022-08-05T06:24:56.803Z,45.30
2022-08-05T06:28:12.713Z,46.00
2022-08-05T06:30:18.004Z,45.50
2022-08-05T06:32:48.429Z,44.30
2022-08-05T06:36:03.007Z,44.90
2022-08-05T06:38:11.390Z,45.70
2022-08-05T06:40:42.258Z,45.10
2022-08-05T06:43:57.781Z,43.50
2022-08-05T06:46:07.351Z,41.90
2022-08-05T06:48:53.830Z,42.10
2022-08-05T06:51:29.853Z,41.50
2022-08-05T06:54:02.790Z,42.00
2022-08-05T06:56:34.270Z,40.30
2022-08-05T06:59:09.346Z,41.50
2022-08-05T07:01:40.472Z,40.40
2022-08-05T07:04:08.504Z,40.00
2022-08-05T07:06:35.943Z,39.70
2022-08-05T07:09:04.660Z,40.80
2022-08-05T07:11:36.950Z,39.80
2022-08-05T07:14:29.449Z,39.50
2022-08-05T07:18:00.457Z,40.10
2022-08-05T07:22:42.155Z,40.00
2022-08-05T07:25:24.080Z,39.10
2022-08-05T07:28:03.916Z,39.30
2022-08-05T07:30:38.711Z,39.80
2022-08-05T07:33:16.122Z,39.80
2022-08-05T07:36:04.525Z,39.00
2022-08-05T07:38:43.732Z,40.20
2022-08-05T07:42:07.651Z,39.90
2022-08-05T07:44:18.520Z,39.00
2022-08-05T07:46:49.422Z,40.10
2022-08-05T07:49:18.568Z,39.80
2022-08-05T07:51:53.797Z,39.60
2022-08-05T07:54:30.630Z,38.10
2022-08-05T07:57:14.751Z,39.40
2022-08-05T07:59:50.153Z,38.70
2022-08-05T08:02:18.149Z,38.70
2022-08-05T08:04:48.352Z,38.50
2022-08-05T08:07:22.011Z,39.50
2022-08-05T08:09:52.573Z,39.50
2022-08-05T08:12:35.370Z,39.60
2022-08-05T08:15:15.261Z,39.00
2022-08-05T08:17:50.600Z,38.50
2022-08-05T08:20:44.053Z,38.70
2022-08-05T08:24:03.269Z,39.40
2022-08-05T08:26:04.485Z,39.10
2022-08-05T08:28:36.497Z,38.40
2022-08-05T08:31:06.937Z,38.00
2022-08-05T08:33:37.564Z,39.40
2022-08-05T08:38:56.954Z,39.00
2022-08-05T08:41:52.275Z,39.90
2022-08-05T08:45:22.191Z,38.70
2022-08-05T08:47:21.627Z,38.40
2022-08-05T08:50:31.261Z,39.20
2022-08-05T08:52:56.352Z,39.20
2022-08-05T08:56:02.541Z,39.30
2022-08-05T08:58:13.227Z,37.50
2022-08-05T09:00:44.408Z,37.90
2022-08-05T09:03:16.244Z,38.10
2022-08-05T09:06:08.589Z,39.00
2022-08-05T09:08:35.843Z,38.90
2022-08-05T09:11:08.872Z,37.50
2022-08-05T09:14:10.344Z,37.00
2022-08-05T09:16:31.023Z,36.80
2022-08-05T09:18:59.434Z,37.40
2022-08-05T09:22:22.719Z,37.70
2022-08-05T09:24:16.403Z,36.90
2022-08-05T09:26:51.732Z,36.30
2022-08-05T09:29:19.727Z,36.40
2022-08-05T09:32:42.951Z,36.30
2022-08-05T09:34:56.591Z,35.20
2022-08-05T09:38:16.403Z,35.10
2022-08-05T09:40:39.644Z,35.00
2022-08-05T09:43:41.087Z,35.40
2022-08-05T09:46:34.018Z,36.40
2022-08-05T09:49:19.001Z,35.70
2022-08-05T09:51:48.942Z,35.60
2022-08-05T09:54:21.192Z,36.00
2022-08-05T09:57:01.510Z,35.30
2022-08-05T09:59:36.906Z,35.00
2022-08-05T10:02:05.014Z,35.50
2022-08-05T10:04:39.517Z,34.10
2022-08-05T10:07:20.261Z,36.60
2022-08-05T10:10:16.214Z,35.10
2022-08-05T10:12:49.260Z,35.10
2022-08-05T10:15:26.875Z,33.80
2022-08-05T10:18:11.153Z,34.00
2022-08-05T10:20:50.596Z,34.70
2022-08-05T10:23:34.300Z,34.80
2022-08-05T10:26:14.423Z,33.80
2022-08-05T10:28:46.941Z,34.30
2022-08-05T10:32:48.044Z,34.30
2022-08-05T10:34:06.937Z,34.00
2022-08-05T10:36:39.918Z,36.00
2022-08-05T10:39:24.611Z,34.70
2022-08-05T10:42:08.256Z,34.50
2022-08-05T10:44:43.787Z,34.60
2022-08-05T10:47:25.958Z,34.80
2022-08-05T10:50:32.004Z,33.60
2022-08-05T10:53:02.155Z,34.30
2022-08-05T10:55:38.586Z,35.50
2022-08-05T10:58:20.928Z,35.20
2022-08-05T11:00:55.429Z,36.40
2022-08-05T11:03:30.737Z,34.30
2022-08-05T11:06:15.604Z,34.30
2022-08-05T11:09:17.142Z,36.00
2022-08-05T11:11:53.395Z,34.80
2022-08-05T11:14:49.369Z,34.90
2022-08-05T11:18:09.504Z,35.10
2022-08-05T11:20:45.532Z,36.90
2022-08-05T11:23:33.336Z,34.60
2022-08-05T11:26:09.071Z,33.80
2022-08-05T11:28:36.898Z,34.10
2022-08-05T11:31:06.573Z,34.50
2022-08-05T11:33:46.653Z,35.50
2022-08-05T11:36:34.716Z,35.10
2022-08-05T11:39:08.067Z,36.00
2022-08-05T11:42:01.965Z,34.30
2022-08-05T11:44:53.447Z,36.40
2022-08-05T11:47:48.761Z,35.80
2022-08-05T11:50:10.132Z,33.90
2022-08-05T11:52:43.912Z,35.50
2022-08-05T11:55:14.037Z,34.70
2022-08-05T11:58:10.116Z,35.90
2022-08-05T12:00:38.106Z,35.00
2022-08-05T12:03:29.176Z,35.20
2022-08-05T12:06:06.589Z,34.90
2022-08-05T12:08:51.123Z,34.90
2022-08-05T12:11:40.364Z,35.70
2022-08-05T12:14:10.321Z,33.90
2022-08-05T12:16:41.028Z,33.60
2022-08-05T12:20:26.092Z,34.30
2022-08-05T12:22:01.907Z,34.50
2022-08-05T12:24:30.033Z,33.30
2022-08-05T12:26:58.545Z,33.90
2022-08-05T12:29:27.868Z,34.60
2022-08-05T12:32:09.580Z,34.20
2022-08-05T12:34:38.775Z,34.30
2022-08-05T12:37:17.289Z,34.20
2022-08-05T12:39:45.861Z,34.00
2022-08-05T12:42:21.613Z,35.10
2022-08-05T12:44:52.937Z,34.40
2022-08-05T12:47:31.167Z,34.00
2022-08-05T12:50:03.753Z,34.00
2022-08-05T12:52:41.655Z,34.50
2022-08-05T12:55:22.839Z,34.30
2022-08-05T12:58:49.250Z,35.40
2022-08-05T13:02:01.239Z,33.80
2022-08-05T13:03:33.007Z,34.50
2022-08-05T13:06:06.939Z,34.10
2022-08-05T13:08:39.933Z,34.60
2022-08-05T13:11:08.208Z,33.00
2022-08-05T13:14:05.135Z,32.50
2022-08-05T13:16:28.057Z,34.30
2022-08-05T13:18:57.883Z,33.50
2022-08-05T13:21:27.706Z,34.90
2022-08-05T13:23:56.263Z,33.80
2022-08-05T13:26:29.990Z,35.60
2022-08-05T13:28:59.212Z,34.00
2022-08-05T13:32:03.705Z,34.30
2022-08-05T13:34:21.028Z,34.70
2022-08-05T13:36:53.930Z,35.10
2022-08-05T13:40:13.819Z,34.40
2022-08-05T13:42:14.406Z,34.50
2022-08-05T13:44:46.161Z,34.00
2022-08-05T13:47:34.613Z,34.30
2022-08-05T13:50:06.390Z,34.40
2022-08-05T13:52:35.995Z,34.50
2022-08-05T13:55:07.966Z,34.50
2022-08-05T13:57:50.719Z,34.90
2022-08-05T14:00:27.010Z,37.80
2022-08-05T14:02:57.194Z,35.10
2022-08-05T14:05:48.359Z,34.30
2022-08-05T14:08:21.352Z,35.10
2022-08-05T14:10:59.624Z,35.80
2022-08-05T14:13:32.178Z,34.90
2022-08-05T14:16:07.675Z,35.90
2022-08-05T14:18:38.725Z,37.40
2022-08-05T14:21:24.064Z,36.10
2022-08-05T14:23:53.892Z,35.70
2022-08-05T14:26:36.207Z,36.20
2022-08-05T14:29:10.031Z,36.80
2022-08-05T14:32:03.945Z,36.90
2022-08-05T14:34:35.369Z,35.60
2022-08-05T14:37:05.785Z,37.60
2022-08-05T14:39:50.215Z,36.50
2022-08-05T14:42:22.590Z,36.70
2022-08-05T14:44:52.784Z,37.00
2022-08-05T14:48:02.464Z,38.00
2022-08-05T14:50:17.386Z,38.30
2022-08-05T14:52:57.645Z,36.90
2022-08-05T14:55:28.749Z,37.90
2022-08-05T14:58:10.976Z,38.80
2022-08-05T15:00:59.081Z,38.80
2022-08-05T15:03:29.597Z,38.30
2022-08-05T15:06:07.979Z,38.80
2022-08-05T15:09:01.343Z,38.80
2022-08-05T15:11:52.546Z,38.90
2022-08-05T15:14:33.323Z,38.60
2022-08-05T15:17:04.171Z,39.30
2022-08-05T15:19:32.639Z,38.70
2022-08-05T15:22:01.508Z,39.20
2022-08-05T15:24:29.989Z,40.50
2022-08-05T15:26:58.544Z,39.20
2022-08-05T15:29:30.079Z,38.90
2022-08-05T15:32:03.173Z,40.60
2022-08-05T15:34:32.999Z,40.30
2022-08-05T15:37:06.268Z,40.00
2022-08-05T15:40:59.160Z,40.00
2022-08-05T15:42:54.007Z,39.80
2022-08-05T15:45:11.705Z,40.80
2022-08-05T15:47:40.237Z,41.40
2022-08-05T15:50:09.354Z,42.00
2022-08-05T15:52:53.808Z,41.50
2022-08-05T15:55:25.045Z,41.60
2022-08-05T15:58:16.378Z,42.30
2022-08-05T16:00:50.614Z,44.00
2022-08-05T16:03:32.813Z,43.70
2022-08-05T16:06:02.327Z,44.50
2022-08-05T16:08:30.570Z,44.60
2022-08-05T16:10:58.797Z,44.30
2022-08-05T16:13:34.382Z,44.10
2022-08-05T16:16:06.145Z,45.00
2022-08-05T16:18:33.847Z,44.90
2022-08-05T16:21:04.127Z,45.70
2022-08-05T16:23:53.788Z,46.40
2022-08-05T16:26:26.399Z,46.00
2022-08-05T16:28:55.096Z,46.50
2022-08-05T16:31:23.498Z,46.20
2022-08-05T16:33:52.481Z,47.50
2022-08-05T16:36:24.105Z,47.30
2022-08-05T16:38:55.217Z,48.00
2022-08-05T16:42:14.938Z,48.40
2022-08-05T16:44:13.578Z,48.80
2022-08-05T16:46:42.571Z,49.50
2022-08-05T16:49:23.953Z,49.80
2022-08-05T16:51:56.887Z,50.10
2022-08-05T16:54:30.360Z,50.00
2022-08-05T16:57:00.801Z,50.00
2022-08-05T16:59:30.796Z,50.20
2022-08-05T17:01:59.483Z,50.60
2022-08-05T17:04:28.670Z,50.60
2022-08-05T17:07:01.803Z,51.00
2022-08-05T17:09:57.708Z,50.80
2022-08-05T17:12:22.654Z,50.70
2022-08-05T17:15:07.754Z,50.80
2022-08-05T17:17:42.622Z,50.90
2022-08-05T17:20:14.647Z,51.70
2022-08-05T17:22:42.471Z,51.70
2022-08-05T17:25:22.097Z,51.60
2022-08-05T17:28:00.195Z,52.00
2022-08-05T17:30:29.188Z,52.30
2022-08-05T17:32:56.695Z,52.30
2022-08-05T17:35:24.294Z,52.40
2022-08-05T17:37:52.339Z,52.60
2022-08-05T17:40:28.173Z,52.50
2022-08-05T17:42:58.931Z,53.20
2022-08-05T17:45:29.587Z,53.50
2022-08-05T17:48:08.266Z,53.40
2022-08-05T17:50:36.140Z,53.90
2022-08-05T17:53:05.493Z,53.90
2022-08-05T17:55:37.791Z,53.70
2022-08-05T17:58:13.224Z,54.20
2022-08-05T18:00:50.734Z,54.80
2022-08-05T18:03:48.517Z,54.80
2022-08-05T18:06:11.410Z,55.10
2022-08-05T18:08:44.733Z,55.50
2022-08-05T18:11:24.473Z,56.70
2022-08-05T18:13:59.790Z,57.10
2022-08-05T18:16:27.913Z,57.30
2022-08-05T18:18:55.449Z,57.30
2022-08-05T18:21:26.024Z,57.60
2022-08-05T18:23:55.522Z,58.70
2022-08-05T18:26:29.452Z,59.60
2022-08-05T18:29:00.345Z,60.20
2022-08-05T18:31:33.178Z,59.80
2022-08-05T18:34:06.008Z,60.20
2022-08-05T18:36:36.969Z,61.20
2022-08-05T18:39:22.341Z,62.50
2022-08-05T18:42:03.702Z,62.40
2022-08-05T18:44:49.248Z,63.60
2022-08-05T18:47:26.874Z,64.80
2022-08-05T18:50:15.770Z,66.50
2022-08-05T18:52:51.377Z,66.60
2022-08-05T18:55:19.586Z,66.40
2022-08-05T18:57:53.010Z,66.20
2022-08-05T19:00:26.927Z,65.80
2022-08-05T19:02:55.839Z,65.80
2022-08-05T19:06:11.284Z,66.10
2022-08-05T19:08:13.757Z,66.70
2022-08-05T19:10:43.151Z,67.00
2022-08-05T19:13:15.609Z,66.70
2022-08-05T19:15:59.815Z,66.70
2022-08-05T19:18:31.057Z,66.50
2022-08-05T19:20:59.856Z,66.90
2022-08-05T19:24:06.877Z,66.80
2022-08-05T19:26:16.832Z,67.20
2022-08-05T19:28:46.207Z,66.80
2022-08-05T19:31:18.030Z,67.10
2022-08-05T19:33:56.494Z,67.50
2022-08-05T19:36:29.267Z,67.40
2022-08-05T19:39:00.673Z,67.90
2022-08-05T19:41:58.198Z,67.70
2022-08-05T19:44:18.493Z,68.10
2022-08-05T19:46:46.485Z,67.80
2022-08-05T19:49:16.830Z,69.20
2022-08-05T19:52:09.062Z,69.60
2022-08-05T19:54:35.085Z,70.10
2022-08-05T19:57:06.703Z,70.20
2022-08-05T20:00:00.607Z,70.60
2022-08-05T20:02:27.052Z,70.50
2022-08-05T20:04:58.869Z,70.80
2022-08-05T20:07:46.252Z,70.90
2022-08-05T20:10:15.796Z,70.90
2022-08-05T20:12:47.929Z,71.30
2022-08-05T20:15:23.201Z,71.20
2022-08-05T20:18:33.120Z,71.20
2022-08-05T20:20:57.361Z,71.50
2022-08-05T20:23:40.656Z,71.40
2022-08-05T20:26:15.226Z,71.50
2022-08-05T20:28:46.353Z,71.40
2022-08-05T20:31:16.600Z,71.20
2022-08-05T20:33:45.540Z,71.60
2022-08-05T20:36:16.197Z,71.60
2022-08-05T20:38:57.796Z,71.60
2022-08-05T20:41:44.405Z,71.70
2022-08-05T20:44:19.101Z,71.80
2022-08-05T20:47:03.856Z,71.80
2022-08-05T20:49:33.300Z,72.00
2022-08-05T20:52:08.046Z,72.00
2022-08-05T20:54:43.260Z,71.90
2022-08-05T20:57:42.243Z,72.10
2022-08-05T21:00:41.502Z,72.40
2022-08-05T21:03:07.366Z,72.30
2022-08-05T21:05:47.677Z,72.50
2022-08-05T21:08:26.721Z,72.70
2022-08-05T21:10:58.469Z,72.90
2022-08-05T21:13:47.105Z,72.70
2022-08-05T21:16:14.243Z,73.20
2022-08-05T21:18:44.952Z,73.20
2022-08-05T21:21:13.354Z,73.40
2022-08-05T21:23:40.864Z,73.30
2022-08-05T21:26:14.250Z,73.50
2022-08-05T21:28:47.921Z,73.70
2022-08-05T21:31:18.707Z,74.00
2022-08-05T21:33:47.542Z,73.80
2022-08-05T21:36:19.081Z,73.60
2022-08-05T21:38:55.727Z,73.80
2022-08-05T21:41:23.358Z,73.50
2022-08-05T21:44:01.544Z,73.30
2022-08-05T21:46:34.599Z,73.30
2022-08-05T21:49:07.215Z,73.30
2022-08-05T21:52:21.871Z,73.50
2022-08-05T21:54:27.783Z,73.30
2022-08-05T21:57:28.443Z,73.50
2022-08-05T22:00:03.922Z,73.40
2022-08-05T22:02:33.181Z,73.60
2022-08-05T22:05:01.248Z,73.70
2022-08-05T22:07:40.022Z,73.60
2022-08-05T22:10:18.033Z,73.60
2022-08-05T22:12:54.935Z,73.90
2022-08-05T22:16:00.529Z,73.80
2022-08-05T22:18:13.126Z,74.00
2022-08-05T22:20:42.949Z,74.00
2022-08-05T22:24:02.792Z,73.90
2022-08-05T22:26:36.443Z,73.70
2022-08-05T22:29:04.947Z,73.70
2022-08-05T22:31:44.879Z,74.10
2022-08-05T22:34:20.063Z,74.20
2022-08-05T22:36:53.379Z,74.20
2022-08-05T22:39:21.521Z,74.00
2022-08-05T22:42:09.459Z,74.40
2022-08-05T22:44:36.600Z,74.10
2022-08-05T22:47:05.090Z,74.40
2022-08-05T22:50:18.288Z,74.80
2022-08-05T22:52:30.677Z,74.80
2022-08-05T22:55:02.054Z,74.70
2022-08-05T22:57:36.291Z,74.50
2022-08-05T23:00:09.401Z,74.90
2022-08-05T23:02:46.351Z,74.80
2022-08-05T23:05:15.678Z,74.60
2022-08-05T23:07:45.224Z,74.70
2022-08-05T23:10:19.942Z,74.40
2022-08-05T23:12:51.548Z,74.70
2022-08-05T23:15:29.896Z,74.70
2022-08-05T23:18:06.154Z,74.70
2022-08-05T23:20:40.181Z,75.00
2022-08-05T23:23:11.274Z,75.00
2022-08-05T23:25:51.179Z,75.30
2022-08-05T23:28:21.400Z,75.30
2022-08-05T23:30:54.064Z,75.60
2022-08-05T23:33:26.192Z,75.60
2022-08-05T23:36:13.745Z,75.70
2022-08-05T23:38:41.920Z,76.30
2022-08-05T23:41:10.917Z,76.20
2022-08-05T23:44:03.800Z,76.40
2022-08-05T23:46:25.575Z,76.80
2022-08-05T23:48:59.912Z,76.50
2022-08-05T23:51:54.026Z,76.50
2022-08-05T23:54:30.245Z,76.40
2022-08-05T23:57:05.199Z,76.60
